Time;durP1;ratioP1;P1;durP2;ratioP2;P2;SDS_P1;SDS_P2;PMS_P1;PMS_P2;Temp;Humidity;BMP_temperature;BMP_pressure;BME280_temperature;BME280_humidity;BME280_pressure;Samples;Min_cycle;Max_cycle;Signal;HPM_P1;HPM_P2
2023/04/12 00:01:54;;;;;;;0.40;0.40;;;;;;;8.72;89.38;95816.00;5059690;28;20216;-68
2023/04/12 00:04:21;;;;;;;0.30;0.30;;;;;;;8.75;89.12;95813.03;5060908;28;20208;-68
2023/04/12 00:06:48;;;;;;;0.40;0.40;;;;;;;8.83;88.86;95810.31;5059963;28;20304;-68
2023/04/12 00:09:15;;;;;;;0.40;0.40;;;;;;;8.79;88.69;95809.84;5059472;28;20224;-68
2023/04/12 00:11:42;;;;;;;0.47;0.47;;;;;;;8.82;89.21;95803.44;5059404;28;20224;-67
2023/04/12 00:14:08;;;;;;;0.40;0.40;;;;;;;8.75;90.29;95803.31;5060055;28;20208;-68
2023/04/12 00:16:37;;;;;;;0.30;0.30;;;;;;;8.77;89.78;95809.22;5059661;28;20204;-68
2023/04/12 00:19:03;;;;;;;0.33;0.33;;;;;;;8.69;88.87;95809.28;5059733;28;20196;-68
2023/04/12 00:21:30;;;;;;;0.40;0.40;;;;;;;8.68;89.90;95815.53;5058891;28;20712;-68
2023/04/12 00:23:56;;;;;;;0.73;0.73;;;;;;;8.47;91.68;95819.78;5059246;28;20204;-68
2023/04/12 00:26:25;;;;;;;0.37;0.37;;;;;;;8.50;91.80;95812.38;5059162;28;20857;-68
2023/04/12 00:28:51;;;;;;;0.50;0.50;;;;;;;8.50;93.00;95815.00;5058743;28;20220;-68
2023/04/12 00:31:18;;;;;;;0.53;0.53;;;;;;;8.55;94.73;95820.56;5059354;28;21071;-68
2023/04/12 00:33:44;;;;;;;0.50;0.50;;;;;;;8.56;96.37;95816.13;5059874;28;20208;-68
2023/04/12 00:36:11;;;;;;;0.40;0.40;;;;;;;8.51;97.40;95806.16;5059390;28;20215;-68
2023/04/12 00:38:38;;;;;;;0.40;0.40;;;;;;;8.44;96.71;95800.94;5058637;28;20197;-68
2023/04/12 00:41:05;;;;;;;0.47;0.47;;;;;;;8.54;97.24;95795.28;5058741;28;20580;-68
2023/04/12 00:43:32;;;;;;;0.47;0.47;;;;;;;8.51;98.72;95800.91;5059138;28;20329;-68
2023/04/12 00:45:59;;;;;;;0.40;0.40;;;;;;;8.57;98.48;95805.44;5059746;28;20200;-67
2023/04/12 00:48:26;;;;;;;0.97;0.97;;;;;;;8.65;99.61;95800.09;5058098;28;20734;-67
2023/04/12 00:50:54;;;;;;;0.40;0.40;;;;;;;8.60;100.00;95791.97;5059421;28;20204;-68
2023/04/12 00:53:22;;;;;;;0.47;0.43;;;;;;;8.65;100.00;95783.53;5059398;28;20220;-67
2023/04/12 00:55:50;;;;;;;0.80;0.80;;;;;;;8.63;100.00;95790.78;5058702;28;20208;-67
2023/04/12 00:58:17;;;;;;;0.30;0.30;;;;;;;8.63;100.00;95781.09;5058356;28;20661;-67
2023/04/12 01:00:48;;;;;;;0.40;0.40;;;;;;;8.62;100.00;95783.91;5058963;28;20196;-67
2023/04/12 01:03:15;;;;;;;0.40;0.40;;;;;;;8.49;100.00;95789.75;5058578;28;20238;-67
2023/04/12 01:05:50;;;;;;;0.60;0.43;;;;;;;8.58;100.00;95782.63;5059312;28;20660;-67
2023/04/12 01:08:28;;;;;;;0.40;0.40;;;;;;;8.66;100.00;95782.56;5058377;28;20272;-67
2023/04/12 01:11:00;;;;;;;0.20;0.20;;;;;;;8.58;100.00;95782.63;5059014;28;20200;-68
2023/04/12 01:13:32;;;;;;;0.30;0.30;;;;;;;8.62;100.00;95779.47;5058072;28;20235;-67
2023/04/12 01:16:05;;;;;;;0.77;0.60;;;;;;;8.48;100.00;95770.69;5059423;28;20747;-67
2023/04/12 01:18:39;;;;;;;0.97;0.70;;;;;;;8.59;100.00;95777.19;5058409;28;20201;-67
2023/04/12 01:21:09;;;;;;;0.40;0.40;;;;;;;8.45;100.00;95771.88;5058150;28;20200;-67
2023/04/12 01:24:12;;;;;;;0.23;0.23;;;;;;;8.45;100.00;95774.50;5058137;28;20216;-67
2023/04/12 01:26:43;;;;;;;0.53;0.53;;;;;;;8.43;100.00;95763.38;5025612;28;20578;-67
2023/04/12 01:29:14;;;;;;;0.30;0.30;;;;;;;8.48;100.00;95765.44;5057325;28;20228;-67
2023/04/12 01:31:51;;;;;;;0.30;0.30;;;;;;;8.47;100.00;95759.41;5057914;28;20266;-68
2023/04/12 01:34:18;;;;;;;1.90;0.70;;;;;;;8.50;100.00;95759.88;5058839;28;20219;-67
2023/04/12 01:36:48;;;;;;;0.50;0.50;;;;;;;8.62;100.00;95757.66;5058579;28;20196;-67
2023/04/12 01:39:14;;;;;;;0.40;0.40;;;;;;;8.55;100.00;95756.69;5058387;28;20203;-67
2023/04/12 01:41:44;;;;;;;0.30;0.30;;;;;;;8.52;100.00;95752.63;5057890;28;20244;-67
2023/04/12 01:44:14;;;;;;;0.30;0.30;;;;;;;8.62;100.00;95753.19;5058113;28;20292;-67
2023/04/12 01:46:42;;;;;;;0.27;0.27;;;;;;;8.43;100.00;95747.63;5059109;28;20261;-67
2023/04/12 01:49:09;;;;;;;0.47;0.47;;;;;;;8.46;100.00;95744.63;5060503;28;20236;-68
2023/04/12 01:51:44;;;;;;;0.50;0.30;;;;;;;8.52;100.00;95751.81;5059329;28;20216;-68
2023/04/12 01:54:17;;;;;;;0.47;0.47;;;;;;;8.36;100.00;95745.84;5058942;28;20196;-67
2023/04/12 01:56:50;;;;;;;0.30;0.30;;;;;;;8.44;100.00;95727.41;5058544;28;20205;-67
2023/04/12 01:59:19;;;;;;;0.60;0.37;;;;;;;8.37;100.00;95723.88;5057809;28;20334;-68
2023/04/12 02:01:46;;;;;;;0.47;0.47;;;;;;;8.30;100.00;95726.38;5058000;28;20224;-68
2023/04/12 02:04:15;;;;;;;0.40;0.40;;;;;;;8.29;100.00;95723.94;5058027;28;20227;-67
2023/04/12 02:06:43;;;;;;;0.40;0.40;;;;;;;8.26;100.00;95724.28;5058424;28;20724;-68
2023/04/12 02:09:09;;;;;;;0.60;0.60;;;;;;;8.32;100.00;95719.13;5054027;28;20236;-67
2023/04/12 02:11:36;;;;;;;0.40;0.40;;;;;;;8.23;100.00;95719.38;5057748;28;20220;-68
2023/04/12 02:14:02;;;;;;;0.40;0.40;;;;;;;8.27;100.00;95712.78;5057489;28;20216;-68
2023/04/12 02:16:31;;;;;;;1.13;1.13;;;;;;;8.32;100.00;95710.47;5058438;28;20208;-68
2023/04/12 02:18:57;;;;;;;0.30;0.30;;;;;;;8.32;100.00;95702.59;5057295;28;20198;-67
2023/04/12 02:21:24;;;;;;;0.30;0.30;;;;;;;8.33;100.00;95698.97;5058247;28;20201;-67
2023/04/12 02:23:51;;;;;;;0.30;0.30;;;;;;;8.26;100.00;95701.50;5057224;28;20694;-68
2023/04/12 02:26:17;;;;;;;0.37;0.30;;;;;;;8.30;100.00;95694.06;5057781;28;20215;-68
2023/04/12 02:28:44;;;;;;;0.40;0.40;;;;;;;8.13;100.00;95682.03;5060418;28;20228;-68
2023/04/12 02:31:11;;;;;;;0.40;0.40;;;;;;;8.18;100.00;95677.09;5058625;28;20209;-67
2023/04/12 02:33:39;;;;;;;0.23;0.23;;;;;;;8.20;100.00;95672.50;5058048;28;20205;-67
2023/04/12 02:36:10;;;;;;;2.67;0.53;;;;;;;8.23;100.00;95667.69;5058931;28;20200;-67
2023/04/12 02:38:36;;;;;;;0.47;0.47;;;;;;;8.15;100.00;95659.09;5057654;28;20184;-67
2023/04/12 02:41:03;;;;;;;0.43;0.40;;;;;;;8.13;100.00;95661.03;5057183;28;20240;-67
2023/04/12 02:43:29;;;;;;;0.53;0.53;;;;;;;8.10;100.00;95650.91;5057107;28;20216;-67
2023/04/12 02:45:55;;;;;;;0.40;0.40;;;;;;;8.15;100.00;95644.16;5057169;28;20215;-67
2023/04/12 02:48:22;;;;;;;0.30;0.30;;;;;;;8.08;100.00;95637.13;5057126;28;20206;-67
2023/04/12 02:50:50;;;;;;;0.47;0.47;;;;;;;8.15;100.00;95624.97;5057221;28;20653;-67
2023/04/12 02:53:16;;;;;;;0.40;0.40;;;;;;;8.07;100.00;95625.00;5058037;28;20231;-67
2023/04/12 02:55:43;;;;;;;0.30;0.30;;;;;;;7.99;100.00;95619.81;5057214;28;20200;-67
2023/04/12 02:58:09;;;;;;;1.40;0.83;;;;;;;8.05;100.00;95619.13;5056431;28;20204;-67
2023/04/12 03:00:36;;;;;;;0.20;0.20;;;;;;;8.09;100.00;95617.78;5056792;28;20193;-68
2023/04/12 03:03:02;;;;;;;0.40;0.40;;;;;;;8.06;100.00;95613.69;5056876;28;20242;-67
2023/04/12 03:05:29;;;;;;;0.60;0.60;;;;;;;8.05;100.00;95616.50;5057126;28;20837;-67
2023/04/12 03:07:57;;;;;;;0.40;0.40;;;;;;;8.09;100.00;95604.66;5056573;28;20216;-67
2023/04/12 03:10:23;;;;;;;0.40;0.40;;;;;;;8.02;100.00;95603.75;5057102;28;20216;-67
2023/04/12 03:12:50;;;;;;;0.30;0.30;;;;;;;7.91;100.00;95602.34;5056911;28;20570;-67
2023/04/12 03:15:17;;;;;;;0.40;0.40;;;;;;;7.85;100.00;95599.59;5056884;28;20593;-67
2023/04/12 03:17:44;;;;;;;0.40;0.40;;;;;;;7.90;100.00;95587.63;5056537;28;20224;-68
2023/04/12 03:20:12;;;;;;;0.40;0.40;;;;;;;7.88;100.00;95589.59;5060573;28;20266;-68
2023/04/12 03:22:38;;;;;;;0.93;0.50;;;;;;;7.89;100.00;95591.22;5060655;28;20310;-67
2023/04/12 03:25:08;;;;;;;0.50;0.50;;;;;;;8.02;100.00;95580.94;5060854;28;20204;-67
2023/04/12 03:27:34;;;;;;;0.40;0.40;;;;;;;7.84;100.00;95590.13;5059977;28;20217;-67
2023/04/12 03:30:01;;;;;;;0.40;0.40;;;;;;;7.89;100.00;95587.75;5060273;28;20570;-67
2023/04/12 03:32:27;;;;;;;0.63;0.50;;;;;;;7.86;100.00;95592.56;5060437;28;20236;-67
2023/04/12 03:34:54;;;;;;;0.47;0.47;;;;;;;7.92;100.00;95582.19;5061092;28;20200;-67
2023/04/12 03:37:20;;;;;;;0.50;0.50;;;;;;;7.91;100.00;95577.94;5060151;28;20204;-67
2023/04/12 03:39:47;;;;;;;0.50;0.50;;;;;;;7.92;100.00;95579.56;5060898;28;20204;-68
2023/04/12 03:42:15;;;;;;;0.50;0.50;;;;;;;7.87;100.00;95566.97;5060755;28;20231;-67
2023/04/12 03:44:42;;;;;;;0.60;0.60;;;;;;;7.88;100.00;95557.31;5060491;28;20200;-67
2023/04/12 03:47:08;;;;;;;0.80;0.80;;;;;;;7.83;100.00;95554.41;5060494;28;20204;-68
2023/04/12 03:49:37;;;;;;;1.20;1.20;;;;;;;7.85;100.00;95552.38;5059587;28;20227;-67
2023/04/12 03:52:05;;;;;;;0.70;0.70;;;;;;;7.92;100.00;95545.47;5060239;28;20216;-67
2023/04/12 03:54:31;;;;;;;0.70;0.70;;;;;;;7.90;100.00;95543.03;5060378;28;20201;-67
2023/04/12 03:56:58;;;;;;;0.50;0.50;;;;;;;7.88;100.00;95538.94;5060422;28;20201;-68
2023/04/12 03:59:26;;;;;;;0.57;0.57;;;;;;;7.97;100.00;95537.88;5060380;28;20200;-68
2023/04/12 04:01:52;;;;;;;0.30;0.30;;;;;;;7.88;100.00;95533.69;5059616;28;20283;-67
2023/04/12 04:04:19;;;;;;;0.80;0.80;;;;;;;7.81;100.00;95538.00;5060370;28;20204;-67
2023/04/12 04:06:46;;;;;;;0.83;0.83;;;;;;;7.79;100.00;95526.91;5060162;28;20250;-67
2023/04/12 04:09:12;;;;;;;0.60;0.60;;;;;;;7.82;100.00;95526.53;5059524;28;20259;-67
2023/04/12 04:11:39;;;;;;;0.70;0.70;;;;;;;7.87;100.00;95525.00;5059858;28;20220;-67
2023/04/12 04:14:05;;;;;;;0.40;0.40;;;;;;;7.87;100.00;95525.00;5060262;28;20208;-67
2023/04/12 04:16:33;;;;;;;0.60;0.60;;;;;;;7.96;100.00;95525.75;5059802;28;20200;-67
2023/04/12 04:19:00;;;;;;;0.30;0.30;;;;;;;7.85;100.00;95520.91;5059254;28;20219;-68
2023/04/12 04:21:29;;;;;;;0.40;0.40;;;;;;;7.88;100.00;95518.75;5059831;28;20258;-67
2023/04/12 04:23:57;;;;;;;1.77;0.67;;;;;;;7.80;100.00;95517.22;5059794;28;20236;-67
2023/04/12 04:26:32;;;;;;;0.47;0.47;;;;;;;7.80;100.00;95509.34;5059685;28;20207;-68
2023/04/12 04:29:00;;;;;;;0.30;0.30;;;;;;;7.84;100.00;95508.81;5058668;28;20201;-67
2023/04/12 04:31:33;;;;;;;0.30;0.30;;;;;;;7.66;100.00;95516.19;5059229;28;20196;-67
2023/04/12 04:34:02;;;;;;;0.30;0.30;;;;;;;7.91;100.00;95507.09;5059414;28;20196;-67
2023/04/12 04:36:29;;;;;;;0.37;0.37;;;;;;;7.73;100.00;95501.38;5059406;28;20201;-68
2023/04/12 04:38:56;;;;;;;0.83;0.77;;;;;;;7.80;100.00;95497.03;5058653;28;20208;-67
2023/04/12 04:41:23;;;;;;;1.70;0.40;;;;;;;7.85;100.00;95504.38;5059149;28;20291;-67
2023/04/12 04:43:49;;;;;;;1.03;0.73;;;;;;;7.87;100.00;95500.59;5059003;28;20213;-67
2023/04/12 04:46:19;;;;;;;0.40;0.40;;;;;;;7.89;100.00;95488.94;5059694;28;20702;-68
2023/04/12 04:48:46;;;;;;;0.40;0.40;;;;;;;7.83;100.00;95480.97;5058686;28;20201;-68
2023/04/12 04:51:14;;;;;;;0.73;0.73;;;;;;;7.91;100.00;95480.88;5059453;28;20224;-68
2023/04/12 04:53:41;;;;;;;0.30;0.30;;;;;;;7.86;100.00;95485.84;5059721;28;20265;-67
2023/04/12 04:56:08;;;;;;;0.40;0.40;;;;;;;7.86;100.00;95479.78;5059052;28;20200;-68
2023/04/12 04:58:35;;;;;;;0.90;0.60;;;;;;;7.77;100.00;95471.19;5058218;28;20196;-68
2023/04/12 05:01:02;;;;;;;0.60;0.60;;;;;;;7.87;100.00;95466.50;5059047;28;20200;-68
2023/04/12 05:03:28;;;;;;;0.67;0.67;;;;;;;7.88;100.00;95478.63;5059519;28;20232;-68
2023/04/12 05:05:55;;;;;;;0.50;0.50;;;;;;;7.92;100.00;95469.41;5058839;28;20201;-68
2023/04/12 05:08:23;;;;;;;0.60;0.60;;;;;;;7.89;100.00;95475.81;5058190;28;20291;-68
2023/04/12 05:10:51;;;;;;;0.67;0.60;;;;;;;7.83;100.00;95480.97;5058909;28;20224;-68
2023/04/12 05:13:17;;;;;;;0.60;0.60;;;;;;;7.87;100.00;95480.41;5058549;28;20423;-68
2023/04/12 05:15:44;;;;;;;0.30;0.30;;;;;;;7.87;100.00;95477.78;5058807;28;20571;-68
2023/04/12 05:18:10;;;;;;;0.57;0.57;;;;;;;7.88;100.00;95478.63;5058717;28;20215;-68
2023/04/12 05:20:37;;;;;;;0.40;0.40;;;;;;;7.97;100.00;95472.31;5058331;28;20204;-68
2023/04/12 05:23:04;;;;;;;0.20;0.20;;;;;;;7.88;100.00;95473.38;5058303;28;20417;-68
2023/04/12 05:25:32;;;;;;;0.30;0.30;;;;;;;8.01;100.00;95468.31;5058270;28;20212;-68
2023/04/12 05:27:58;;;;;;;0.70;0.70;;;;;;;7.85;100.00;95465.84;5057909;28;20307;-68
2023/04/12 05:30:25;;;;;;;0.30;0.30;;;;;;;7.93;100.00;95463.97;5058750;28;20220;-68
2023/04/12 05:32:51;;;;;;;0.20;0.20;;;;;;;7.94;100.00;95454.28;5058724;28;20269;-68
2023/04/12 05:35:18;;;;;;;0.70;0.70;;;;;;;7.95;100.00;95451.47;5058740;28;20208;-68
2023/04/12 05:37:44;;;;;;;0.50;0.50;;;;;;;7.97;100.00;95453.94;5058304;28;20196;-68
2023/04/12 05:40:11;;;;;;;0.40;0.40;;;;;;;7.98;100.00;95453.75;5058100;28;20208;-68
2023/04/12 05:42:39;;;;;;;0.73;0.63;;;;;;;8.08;100.00;95453.47;5058218;28;20224;-68
2023/04/12 05:45:06;;;;;;;2.10;1.37;;;;;;;7.95;100.00;95458.53;5058387;28;20200;-68
2023/04/12 05:47:33;;;;;;;0.77;0.77;;;;;;;7.98;100.00;95453.75;5057989;28;20282;-68
2023/04/12 05:49:59;;;;;;;0.33;0.33;;;;;;;7.95;100.00;95451.47;5057555;28;20228;-68
2023/04/12 05:52:25;;;;;;;0.40;0.40;;;;;;;7.95;100.00;95450.66;5058305;28;20594;-68
2023/04/12 05:54:52;;;;;;;0.40;0.40;;;;;;;8.03;100.00;95438.28;5057388;28;21134;-68
2023/04/12 05:57:18;;;;;;;0.67;0.50;;;;;;;8.01;100.00;95442.09;5057612;28;21216;-68
2023/04/12 05:59:46;;;;;;;0.40;0.40;;;;;;;8.10;100.00;95441.00;5058220;28;20204;-68
2023/04/12 06:02:13;;;;;;;0.30;0.30;;;;;;;8.04;100.00;95426.81;5058139;28;20236;-68
2023/04/12 06:04:39;;;;;;;0.30;0.30;;;;;;;8.08;100.00;95435.09;5059019;28;20384;-68
2023/04/12 06:07:06;;;;;;;5.30;1.43;;;;;;;8.06;100.00;95430.03;5058276;28;20291;-68
2023/04/12 06:09:33;;;;;;;0.30;0.30;;;;;;;8.10;100.00;95430.50;5057381;28;20208;-68
2023/04/12 06:12:00;;;;;;;0.40;0.40;;;;;;;8.12;100.00;95425.88;5056695;28;20220;-68
2023/04/12 06:14:27;;;;;;;0.30;0.30;;;;;;;8.14;100.00;95423.94;5054569;28;20200;-68
2023/04/12 06:16:54;;;;;;;0.77;0.70;;;;;;;8.28;100.00;95420.47;5056403;28;20207;-68
2023/04/12 06:19:21;;;;;;;0.30;0.30;;;;;;;8.19;100.00;95429.44;5056771;28;20200;-68
2023/04/12 06:21:47;;;;;;;0.37;0.37;;;;;;;8.12;100.00;95425.88;5056352;28;20227;-67
2023/04/12 06:24:14;;;;;;;0.47;0.47;;;;;;;8.16;100.00;95424.53;5057419;28;20208;-68
2023/04/12 06:26:42;;;;;;;0.40;0.40;;;;;;;8.20;100.00;95418.75;5056977;28;20234;-68
2023/04/12 06:29:08;;;;;;;0.40;0.40;;;;;;;8.13;100.00;95417.00;5057378;28;20208;-68
2023/04/12 06:31:35;;;;;;;0.30;0.30;;;;;;;8.25;100.00;95405.91;5056341;28;20224;-68
2023/04/12 06:34:02;;;;;;;0.60;0.60;;;;;;;8.41;100.00;95407.50;5055221;28;20933;-68
2023/04/12 06:36:29;;;;;;;0.40;0.40;;;;;;;8.30;100.00;95397.47;5056887;28;20205;-68
2023/04/12 06:38:55;;;;;;;0.40;0.40;;;;;;;8.30;100.00;95405.34;5058831;28;20208;-68
2023/04/12 06:41:22;;;;;;;0.30;0.30;;;;;;;8.35;100.00;95390.69;5060970;28;20207;-68
2023/04/12 06:43:48;;;;;;;0.30;0.30;;;;;;;8.50;100.00;95389.66;5058550;28;20246;-68
2023/04/12 06:46:17;;;;;;;0.30;0.30;;;;;;;8.50;100.00;95384.41;5057573;28;20879;-68
2023/04/12 06:48:44;;;;;;;0.57;0.57;;;;;;;8.38;100.00;95381.66;5055265;28;20246;-68
2023/04/12 06:51:11;;;;;;;0.40;0.40;;;;;;;8.41;100.00;95382.06;5054977;28;20235;-68
2023/04/12 06:53:38;;;;;;;0.40;0.40;;;;;;;8.41;100.00;95378.63;5054942;28;20215;-68
2023/04/12 06:56:05;;;;;;;0.40;0.40;;;;;;;8.44;100.00;95375.63;5056755;28;20341;-68
2023/04/12 06:58:31;;;;;;;0.40;0.40;;;;;;;8.43;100.00;95368.78;5056869;28;20200;-68
2023/04/12 07:01:04;;;;;;;0.53;0.53;;;;;;;8.57;100.00;95359.03;5059102;28;20204;-69
2023/04/12 07:03:32;;;;;;;0.20;0.20;;;;;;;8.54;100.00;95355.97;5057091;28;20228;-68
2023/04/12 07:06:01;;;;;;;0.30;0.30;;;;;;;8.52;100.00;95353.53;5057769;28;20204;-68
2023/04/12 07:08:29;;;;;;;0.33;0.33;;;;;;;8.69;100.00;95344.44;5057239;28;20500;-68
2023/04/12 07:10:55;;;;;;;0.17;0.17;;;;;;;8.73;100.00;95339.59;5057669;28;20235;-68
2023/04/12 07:13:22;;;;;;;0.30;0.30;;;;;;;8.67;100.00;95337.75;5056252;28;20224;-68
2023/04/12 07:15:49;;;;;;;0.40;0.40;;;;;;;8.68;100.00;95326.22;5056580;28;20926;-67
2023/04/12 07:18:15;;;;;;;0.40;0.40;;;;;;;8.82;100.00;95313.03;5055587;28;20200;-68
2023/04/12 07:20:42;;;;;;;0.70;0.70;;;;;;;8.86;100.00;95298.53;5056325;28;20253;-68
2023/04/12 07:23:08;;;;;;;0.50;0.50;;;;;;;8.90;100.00;95305.03;5058820;28;20232;-68
2023/04/12 07:25:38;;;;;;;0.40;0.40;;;;;;;9.05;100.00;95308.38;5053361;28;20205;-69
2023/04/12 07:28:05;;;;;;;0.30;0.30;;;;;;;9.08;100.00;95300.91;5056320;28;20324;-69
2023/04/12 07:30:31;;;;;;;0.30;0.30;;;;;;;9.18;100.00;95290.09;5055911;28;20220;-69
2023/04/12 07:32:59;;;;;;;0.33;0.33;;;;;;;9.17;100.00;95299.78;5054409;28;20225;-68
2023/04/12 07:35:26;;;;;;;0.27;0.27;;;;;;;9.17;100.00;95294.50;5054590;28;20607;-69
2023/04/12 07:37:53;;;;;;;0.60;0.60;;;;;;;9.17;100.00;95281.38;5053455;28;20204;-68
2023/04/12 07:40:20;;;;;;;0.40;0.40;;;;;;;9.18;100.00;95287.47;5055359;28;20212;-68
2023/04/12 07:42:48;;;;;;;0.20;0.20;;;;;;;9.26;100.00;95282.06;5052619;28;20232;-68
2023/04/12 07:45:15;;;;;;;1.80;1.37;;;;;;;9.26;100.00;95280.22;5055226;28;20205;-68
2023/04/12 07:47:41;;;;;;;0.30;0.30;;;;;;;9.27;100.00;95260.81;5054023;28;20696;-69
2023/04/12 07:50:09;;;;;;;0.40;0.40;;;;;;;9.24;100.00;95266.47;5055391;28;20207;-69
2023/04/12 07:52:35;;;;;;;0.37;0.37;;;;;;;9.26;100.00;95255.78;5054487;28;20312;-69
2023/04/12 07:55:03;;;;;;;0.37;0.37;;;;;;;9.36;100.00;95254.41;5056992;28;20209;-69
2023/04/12 07:57:30;;;;;;;0.30;0.30;;;;;;;9.39;100.00;95243.50;5056348;28;20193;-69
2023/04/12 07:59:57;;;;;;;0.20;0.20;;;;;;;9.48;100.00;95249.44;5056479;28;20962;-69
2023/04/12 08:02:24;;;;;;;0.40;0.40;;;;;;;9.38;100.00;95241.06;5056258;28;20236;-69
2023/04/12 08:04:51;;;;;;;0.30;0.30;;;;;;;9.36;100.00;95227.31;5056730;28;21005;-69
2023/04/12 08:07:18;;;;;;;0.40;0.40;;;;;;;9.28;100.00;95230.91;5058229;28;20204;-69
2023/04/12 08:09:44;;;;;;;0.30;0.30;;;;;;;9.31;100.00;95237.59;5058922;28;20212;-69
2023/04/12 08:12:11;;;;;;;0.70;0.57;;;;;;;9.28;100.00;95227.50;5059482;28;20228;-69
2023/04/12 08:14:37;;;;;;;0.50;0.50;;;;;;;9.20;100.00;95212.69;5061791;28;20243;-69
2023/04/12 08:17:05;;;;;;;0.50;0.50;;;;;;;9.39;100.00;95211.16;5058205;28;20201;-69
2023/04/12 08:19:32;;;;;;;0.40;0.40;;;;;;;9.48;100.00;95207.34;5059178;28;21050;-69
2023/04/12 08:21:58;;;;;;;0.20;0.20;;;;;;;9.58;100.00;95205.97;5058475;28;20220;-69
2023/04/12 08:24:25;;;;;;;8.07;3.03;;;;;;;9.70;100.00;95210.50;5058262;28;20196;-69
2023/04/12 08:26:52;;;;;;;0.50;0.50;;;;;;;9.89;100.00;95211.56;5058310;28;20197;-69
2023/04/12 08:29:18;;;;;;;0.27;0.27;;;;;;;10.02;100.00;95209.84;5058341;28;21061;-69
2023/04/12 08:31:46;;;;;;;0.43;0.43;;;;;;;10.05;100.00;95206.78;5057994;28;20227;-69
2023/04/12 08:34:13;;;;;;;0.27;0.27;;;;;;;10.46;100.00;95212.75;5058177;28;20201;-69
2023/04/12 08:36:40;;;;;;;0.90;0.90;;;;;;;10.55;100.00;95211.53;5058794;28;20196;-69
2023/04/12 08:39:06;;;;;;;0.30;0.30;;;;;;;10.74;100.00;95208.13;5057734;28;20216;-69
2023/04/12 08:41:33;;;;;;;0.20;0.20;;;;;;;10.65;100.00;95212.75;5058667;28;20240;-69
2023/04/12 08:44:00;;;;;;;0.50;0.50;;;;;;;10.68;100.00;95215.00;5057583;28;20295;-69
2023/04/12 08:46:28;;;;;;;2.27;0.47;;;;;;;10.60;100.00;95206.50;5058823;28;20574;-69
2023/04/12 08:48:57;;;;;;;0.30;0.30;;;;;;;10.53;100.00;95203.06;5058621;28;20223;-69
2023/04/12 11:47:47;;;;;;;1.10;0.95;;;;;;;13.38;100.00;95030.41;5117018;27;20627;-71
2023/04/12 11:50:28;;;;;;;0.35;0.35;;;;;;;13.71;100.00;95035.25;5099559;27;20388;-71
2023/04/12 11:52:54;;;;;;;1.02;0.90;;;;;;;13.28;100.00;95037.25;5101308;27;20253;-71
2023/04/12 11:55:21;;;;;;;0.68;0.60;;;;;;;13.29;100.00;95035.41;5099527;27;20205;-71
2023/04/12 11:57:53;;;;;;;0.45;0.45;;;;;;;13.33;100.00;95029.47;5101133;27;20199;-71
2023/04/12 12:00:24;;;;;;;0.30;0.30;;;;;;;13.42;100.00;95030.78;5102066;27;20206;-71
2023/04/12 12:02:52;;;;;;;0.50;0.40;;;;;;;13.79;100.00;95027.81;5099380;27;21157;-71
2023/04/12 12:05:19;;;;;;;0.63;0.35;;;;;;;13.70;100.00;95023.88;5100524;27;20206;-71
2023/04/12 12:07:46;;;;;;;0.40;0.40;;;;;;;13.93;100.00;95021.28;5100156;27;20242;-71
2023/04/12 12:10:13;;;;;;;0.35;0.35;;;;;;;13.64;100.00;95000.13;5103629;27;20203;-71
2023/04/12 12:12:43;;;;;;;0.63;0.63;;;;;;;14.17;100.00;94999.16;5100431;27;20288;-71
2023/04/12 12:15:10;;;;;;;1.02;0.93;;;;;;;14.28;98.09;94991.22;5103034;27;20203;-71
2023/04/12 12:17:37;;;;;;;3.13;0.55;;;;;;;14.76;97.56;94984.63;5097416;27;20367;-71
2023/04/12 12:20:06;;;;;;;0.45;0.45;;;;;;;14.51;95.01;94977.16;5096964;28;20724;-71
2023/04/12 12:22:34;;;;;;;1.85;0.35;;;;;;;14.84;97.22;94967.56;5096779;28;20623;-71
2023/04/12 12:25:01;;;;;;;0.90;0.60;;;;;;;15.15;94.33;94970.59;5096782;28;20207;-71
2023/04/12 12:27:34;;;;;;;0.47;0.40;;;;;;;15.49;94.94;94972.34;5095946;28;20219;-71
2023/04/12 12:30:03;;;;;;;0.40;0.40;;;;;;;15.45;93.73;94973.88;5097130;28;20207;-71
2023/04/12 12:32:33;;;;;;;0.30;0.30;;;;;;;15.26;92.28;94964.47;5097134;28;20698;-71
2023/04/12 12:35:00;;;;;;;0.60;0.60;;;;;;;15.15;91.19;94967.13;5096961;27;20206;-71
2023/04/12 12:37:30;;;;;;;0.40;0.40;;;;;;;15.11;90.70;94966.81;5097849;27;20207;-71
2023/04/12 12:40:10;;;;;;;0.40;0.40;;;;;;;14.45;93.07;94964.84;5100034;27;20206;-71
2023/04/12 12:42:38;;;;;;;0.40;0.40;;;;;;;14.22;90.39;94968.28;5097407;27;20332;-71
2023/04/12 12:45:05;;;;;;;0.40;0.40;;;;;;;14.16;89.10;94963.09;5098148;27;20203;-71
2023/04/12 12:47:32;;;;;;;0.30;0.30;;;;;;;14.25;92.15;94961.72;5096204;27;20898;-71
2023/04/12 12:49:58;;;;;;;0.50;0.50;;;;;;;14.13;89.42;94950.31;5100967;27;20203;-71
2023/04/12 12:52:25;;;;;;;0.30;0.30;;;;;;;13.98;90.52;94960.50;5100048;27;20219;-71
2023/04/12 12:54:53;;;;;;;0.30;0.30;;;;;;;14.32;89.40;94939.38;5099114;27;20199;-71
2023/04/12 12:57:19;;;;;;;0.40;0.40;;;;;;;14.39;88.03;94939.25;5093144;27;20210;-71
2023/04/12 12:59:46;;;;;;;0.30;0.30;;;;;;;14.77;91.90;94927.91;5083875;27;20208;-71
2023/04/12 13:02:14;;;;;;;0.32;0.28;;;;;;;15.06;84.87;94926.09;5081840;27;20231;-71
2023/04/12 13:04:40;;;;;;;1.92;1.35;;;;;;;15.74;84.87;94914.41;5085432;27;20210;-71
2023/04/12 13:07:07;;;;;;;0.40;0.40;;;;;;;16.21;79.15;94914.63;5080545;27;20707;-71
2023/04/12 13:09:34;;;;;;;0.38;0.38;;;;;;;16.61;79.65;94920.56;5084631;27;20204;-71
2023/04/12 13:12:01;;;;;;;0.38;0.38;;;;;;;16.87;78.42;94914.56;5081951;28;20219;-71
2023/04/12 13:14:28;;;;;;;1.75;1.48;;;;;;;16.10;76.22;94909.41;5081319;28;20319;-71
2023/04/12 13:16:55;;;;;;;4.63;0.50;;;;;;;16.53;76.98;94911.19;5081826;28;20199;-71
2023/04/12 13:19:21;;;;;;;0.38;0.38;;;;;;;16.18;74.90;94907.16;5081860;28;20199;-71
2023/04/12 13:21:48;;;;;;;0.30;0.30;;;;;;;15.91;74.79;94898.22;5082044;28;20739;-72
2023/04/12 13:24:15;;;;;;;0.30;0.30;;;;;;;15.80;75.23;94894.88;5087370;27;20230;-71
2023/04/12 13:26:42;;;;;;;0.30;0.30;;;;;;;15.48;77.06;94893.78;5082849;28;20223;-72
2023/04/12 13:29:10;;;;;;;0.30;0.30;;;;;;;15.64;79.04;94892.97;5081613;28;20231;-71
2023/04/12 13:31:36;;;;;;;0.35;0.35;;;;;;;15.52;77.50;94889.59;5082439;28;20585;-71
2023/04/12 13:34:03;;;;;;;0.77;0.57;;;;;;;15.55;78.20;94894.41;5083318;28;20211;-71
2023/04/12 13:36:29;;;;;;;0.20;0.20;;;;;;;15.47;76.86;94882.34;5082481;28;20210;-71
2023/04/12 13:38:56;;;;;;;0.60;0.60;;;;;;;15.55;76.85;94884.59;5082026;28;20211;-71
2023/04/12 13:41:22;;;;;;;0.38;0.38;;;;;;;15.40;75.40;94881.69;5085184;28;20206;-71
2023/04/12 13:43:49;;;;;;;0.20;0.20;;;;;;;15.38;76.29;94875.81;5081930;28;20234;-71
2023/04/12 13:46:17;;;;;;;0.43;0.43;;;;;;;15.34;76.60;94876.53;5083980;28;20236;-71
2023/04/12 13:48:43;;;;;;;0.20;0.20;;;;;;;15.31;76.95;94877.00;5081826;28;20203;-71
2023/04/12 13:51:10;;;;;;;0.20;0.20;;;;;;;15.23;77.26;94861.47;5081374;28;20211;-71
2023/04/12 13:53:36;;;;;;;0.30;0.30;;;;;;;15.37;75.65;94862.78;5082570;27;20219;-71
2023/04/12 13:56:03;;;;;;;0.30;0.30;;;;;;;15.23;76.77;94872.06;5081616;28;20696;-71
2023/04/12 13:58:29;;;;;;;0.30;0.30;;;;;;;14.94;77.77;94872.28;5081198;27;20305;-71
2023/04/12 14:00:58;;;;;;;0.30;0.30;;;;;;;14.85;76.99;94868.38;5082464;27;20203;-71
2023/04/12 14:03:26;;;;;;;0.93;0.47;;;;;;;14.91;78.18;94870.91;5082475;28;20247;-71
2023/04/12 14:05:53;;;;;;;0.20;0.20;;;;;;;14.83;78.51;94857.22;5083969;27;20296;-71
2023/04/12 14:08:19;;;;;;;0.30;0.30;;;;;;;14.87;77.50;94864.47;5082072;28;20231;-71
2023/04/12 14:10:46;;;;;;;0.20;0.20;;;;;;;15.18;76.22;94839.31;5081265;28;20214;-71
2023/04/12 14:13:12;;;;;;;0.30;0.30;;;;;;;15.81;73.87;94849.47;5086732;28;20722;-71
2023/04/12 14:15:38;;;;;;;0.20;0.20;;;;;;;15.93;71.78;94853.63;5082516;28;20200;-71
2023/04/12 14:18:05;;;;;;;0.30;0.30;;;;;;;16.11;70.49;94836.63;5080259;28;20368;-71
2023/04/12 14:20:33;;;;;;;0.28;0.28;;;;;;;16.63;69.64;94833.38;5083807;28;20207;-71
2023/04/12 14:23:00;;;;;;;0.32;0.30;;;;;;;16.08;70.71;94832.59;5081232;28;20706;-71
2023/04/12 14:25:26;;;;;;;0.20;0.20;;;;;;;15.87;70.33;94837.84;5079848;28;20200;-71
2023/04/12 14:27:52;;;;;;;0.20;0.20;;;;;;;15.49;70.74;94847.56;5081616;28;20227;-72
2023/04/12 14:30:19;;;;;;;0.30;0.30;;;;;;;15.58;73.54;94846.97;5081397;28;20216;-72
2023/04/12 14:32:46;;;;;;;0.40;0.40;;;;;;;15.37;74.30;94841.53;5082586;28;20227;-72